Airfield :
LOGIN :

Register | Disclaimer

   EN    FR    IT 

 










Legend :    VFR   Marginal VFR   IFR   Intensive IFR   Very Intensive IFR
Visi :
Ceiling :
>= 8 km
>= 3000ft
5 to 8 km
1000 to 3000 ft
1500m to 5 km
500 to 1000 ft
800 to 1500m
200 to 500 ft
< 800m
< 200 ft
Symbols :   Thunderstorms  Fog  Heavy snow  Heavy precipitations  Wind > 20 kt
SIGMETs :     Misc.  Thunderstorms  Icing  Turbulence  Mountain Waves  Volcanic Ashes







- Airport Elevation : 200 ft


EBBL - Klein Brogel AB

CURRENT METAR :
  • 180125Z AUTO VRB01KT 0300 FG NCD 11/11 Q1015 RED

EXPIRED METARs :
  • 180121Z AUTO VRB01KT 0600 BR NCD 11/11 Q1015 RED
  • 180105Z AUTO VRB01KT 3600 BR NCD 11/11 Q1015 YLO
  • 180055Z AUTO VRB01KT 3800 BR NCD 11/11 Q1015 GRN
  • 180043Z AUTO VRB01KT 5000 NCD 12/11 Q1015 WHT
  • 180025Z AUTO VRB02KT 4500 NCD 11/11 Q1016 GRN
  • 172355Z AUTO VRB02KT 6000 NCD 12/11 Q1016 WHT
  • 172340Z AUTO VRB02KT 7000 FEW036/// 12/12 Q1016 WHT
  • 172325Z AUTO 08003KT 9000 FEW036/// 12/12 Q1016 BLU
  • 172314Z AUTO 08003KT 4400 BKN037/// 12/12 Q1016 GRN
  • 172255Z AUTO VRB02KT 7000 BKN038/// 13/12 Q1017 WHT

TAF TAF EBBL
Valid from the 17 at 19:00 until the 18 at 07:00 UTC


171541Z 1719/1807 VRB02KT 9999 SCT260
BECMG 1801/1803 3000 BR
PROB30
TEMPO 1803/1807 0500 FG BKN001
No reported NOTAMs for that airfield.



MET'MAP, your aeronautical weather chart ! - Copyright ORBIFLY December 2007 - Disclaimer

ORBIFLY MET'MAP TEAM :

Programming & Development : Alexandra Zaïnal
Concept & Development : Baudouin d'Aumeries
Co-Development & Prog : Marc-Olivier Méhu
Technical & hardware support : Manuel Goepfert

Contact : metmap@orbifly.com




SOURCES & CREDITS :

   NOAA